Time;durP1;ratioP1;P1;durP2;ratioP2;P2;SDS_P1;SDS_P2;PMS_P1;PMS_P2;Temp;Humidity;BMP_temperature;BMP_pressure;BME280_temperature;BME280_humidity;BME280_pressure;Samples;Min_cycle;Max_cycle;Signal;HPM_P1;HPM_P2
2022/05/29 00:12:39;;;;;;;3.08;1.90;;;;;;;17.46;66.60;99915.78;31331663;28;20064;-77
2022/05/29 00:27:41;;;;;;;2.95;1.60;;;;;;;17.37;66.68;99917.34;31341142;28;20055;-78
2022/05/29 00:42:43;;;;;;;3.53;1.52;;;;;;;17.39;66.45;99925.13;31333307;28;20041;-77
2022/05/29 00:57:51;;;;;;;7.88;2.33;;;;;;;17.39;67.11;99927.88;31312416;28;20063;-77
2022/05/29 01:13:05;;;;;;;4.28;3.08;;;;;;;17.16;70.82;99901.97;31328407;28;20067;-76
2022/05/29 01:28:49;;;;;;;3.60;2.17;;;;;;;17.10;69.79;99887.38;31317642;28;20046;-77
2022/05/29 01:43:54;;;;;;;5.40;2.28;;;;;;;17.06;71.33;99914.22;31282419;28;20048;-76
2022/05/29 01:59:09;;;;;;;4.30;2.40;;;;;;;17.22;70.63;99905.59;31335517;28;20128;-76
2022/05/29 02:14:18;;;;;;;4.85;4.13;;;;;;;17.01;69.73;99923.84;31336270;28;20057;-76
2022/05/29 02:29:20;;;;;;;3.55;2.47;;;;;;;16.68;71.39;99932.09;31343003;28;20056;-76
2022/05/29 02:44:29;;;;;;;3.75;2.40;;;;;;;16.66;74.25;99937.28;31322474;28;20075;-77
2022/05/29 02:59:46;;;;;;;4.03;2.67;;;;;;;16.58;75.62;99940.78;31350179;28;20049;-76
2022/05/29 03:15:34;;;;;;;3.58;2.55;;;;;;;16.80;74.95;99951.53;31332018;28;20392;-77
2022/05/29 03:30:39;;;;;;;7.43;4.78;;;;;;;16.86;76.51;99960.63;31323282;28;20491;-77
2022/05/29 03:45:41;;;;;;;6.65;4.90;;;;;;;17.17;74.26;99968.56;31292274;28;20053;-77
2022/05/29 04:00:43;;;;;;;7.90;5.18;;;;;;;17.36;74.53;99962.47;31332008;28;20562;-77
2022/05/29 04:15:46;;;;;;;10.05;5.97;;;;;;;18.21;73.07;99982.06;31294560;28;20049;-77
2022/05/29 04:30:48;;;;;;;13.90;9.07;;;;;;;18.95;68.91;99998.50;31296252;28;20514;-77
2022/05/29 04:45:55;;;;;;;11.57;8.43;;;;;;;19.11;68.28;100005.50;31300882;28;20059;-77
2022/05/29 05:01:02;;;;;;;12.93;7.47;;;;;;;19.40;64.91;100000.63;31320013;28;20395;-76
2022/05/29 05:16:05;;;;;;;10.07;6.53;;;;;;;19.05;65.71;100002.66;31307185;28;20080;-76
2022/05/29 05:31:07;;;;;;;7.20;4.63;;;;;;;19.11;64.75;100011.78;31336203;28;20130;-77
2022/05/29 05:46:13;;;;;;;10.18;5.13;;;;;;;19.43;64.43;100027.19;31316387;28;20045;-78
2022/05/29 06:01:17;;;;;;;14.73;8.48;;;;;;;20.21;63.35;100043.16;31229126;28;20565;-77
2022/05/29 06:16:20;;;;;;;9.60;6.30;;;;;;;20.47;62.24;100048.69;31186589;28;20087;-77
2022/05/29 06:31:22;;;;;;;8.75;5.00;;;;;;;20.74;62.56;100051.69;31221390;28;20062;-78
2022/05/29 06:46:25;;;;;;;12.73;7.73;;;;;;;21.87;59.33;100047.59;31218360;28;20053;-77
2022/05/29 07:16:48;;;;;;;17.20;8.50;;;;;;;20.96;63.39;100064.16;31199668;28;20109;-77
2022/05/29 07:31:52;;;;;;;17.97;7.00;;;;;;;21.83;61.23;100075.47;31210351;28;20050;-77
2022/05/29 07:46:55;;;;;;;14.43;8.40;;;;;;;21.81;61.93;100077.97;31206122;28;20149;-77
2022/05/29 08:01:57;;;;;;;30.10;17.70;;;;;;;21.63;63.00;100089.44;31301672;28;20133;-80
2022/05/29 08:17:01;;;;;;;16.92;10.95;;;;;;;21.83;62.54;100094.81;31315960;28;20049;-80
2022/05/29 08:32:04;;;;;;;12.40;3.97;;;;;;;23.82;57.59;100096.72;31316205;28;20063;-80
2022/05/29 08:47:06;;;;;;;13.40;5.33;;;;;;;24.98;54.25;100094.53;31334793;28;20135;-80
2022/05/29 09:02:12;;;;;;;10.67;4.20;;;;;;;23.59;55.83;100104.34;31206372;28;20050;-79
2022/05/29 09:17:29;;;;;;;8.60;4.10;;;;;;;23.00;58.45;100122.00;31200652;28;20048;-78
2022/05/29 09:32:33;;;;;;;5.50;3.63;;;;;;;22.66;61.04;100127.50;31176899;28;20060;-78
2022/05/29 10:02:57;;;;;;;5.70;3.78;;;;;;;23.60;57.61;100161.28;31364454;28;20052;-77
2022/05/29 10:18:03;;;;;;;9.02;4.80;;;;;;;23.60;56.87;100150.94;31343912;28;20451;-78
2022/05/29 10:33:09;;;;;;;4.72;3.10;;;;;;;23.12;51.60;100134.59;31364853;28;20040;-79
2022/05/29 10:48:20;;;;;;;3.08;2.13;;;;;;;23.26;48.80;100161.28;31353876;28;20055;-79
2022/05/29 11:03:37;;;;;;;5.60;4.15;;;;;;;23.70;46.88;100165.25;31339090;28;20057;-77
2022/05/29 11:19:01;;;;;;;5.63;2.13;;;;;;;22.42;49.47;100174.22;31298594;28;20614;-77
2022/05/29 11:34:38;;;;;;;3.60;2.25;;;;;;;22.74;50.36;100167.25;31280891;28;20302;-77
2022/05/29 12:05:25;;;;;;;2.88;2.00;;;;;;;21.73;53.14;100177.13;31326030;28;20051;-77
2022/05/29 12:20:44;;;;;;;4.22;2.22;;;;;;;21.11;54.95;100188.97;31312783;28;20051;-77
2022/05/29 12:35:55;;;;;;;4.68;2.13;;;;;;;20.16;57.63;100170.63;31314893;28;20053;-79
2022/05/29 12:51:09;;;;;;;6.72;3.22;;;;;;;19.69;60.24;100186.28;31311152;28;20092;-80
2022/05/29 13:06:39;;;;;;;16.35;2.85;;;;;;;19.40;60.99;100204.31;31326489;28;20414;-78
2022/05/29 13:21:58;;;;;;;5.88;2.22;;;;;;;19.35;62.20;100224.28;31312257;28;20059;-77
2022/05/29 13:37:03;;;;;;;4.53;2.63;;;;;;;19.27;62.67;100225.91;31354427;28;20057;-77
2022/05/29 13:52:18;;;;;;;5.73;2.87;;;;;;;19.36;62.47;100219.53;31295762;28;20048;-77
2022/05/29 14:07:33;;;;;;;3.70;2.50;;;;;;;19.29;63.50;100208.91;31353414;28;20069;-77
2022/05/29 14:22:45;;;;;;;6.03;2.63;;;;;;;19.39;63.19;100205.56;31342749;28;20499;-78
2022/05/29 14:38:06;;;;;;;3.25;2.15;;;;;;;19.28;63.74;100213.66;31304438;28;20055;-78
2022/05/29 14:53:10;;;;;;;2.08;1.45;;;;;;;19.06;64.52;100229.78;31329680;28;20400;-78
2022/05/29 15:39:11;;;;;;;10.13;2.50;;;;;;;18.52;65.61;100248.22;31348585;28;20460;-77
2022/05/29 15:54:51;;;;;;;4.95;2.22;;;;;;;18.30;67.44;100258.75;31339361;28;20057;-78
2022/05/29 16:10:00;;;;;;;3.22;2.08;;;;;;;18.15;68.03;100246.94;31338587;28;20045;-77
2022/05/29 16:25:12;;;;;;;6.25;2.42;;;;;;;17.84;68.83;100255.47;31331746;28;20049;-77
2022/05/29 16:56:08;;;;;;;4.38;2.47;;;;;;;17.50;70.71;100264.84;31321064;28;20059;-77
2022/05/29 17:11:19;;;;;;;7.80;3.10;;;;;;;17.45;71.93;100268.25;31361249;28;20529;-76
2022/05/29 17:26:23;;;;;;;8.93;3.25;;;;;;;17.33;71.98;100267.97;31340465;28;20053;-76
2022/05/29 17:41:26;;;;;;;7.70;3.60;;;;;;;17.20;73.13;100269.38;31303042;28;20045;-77
2022/05/29 17:56:30;;;;;;;5.18;2.72;;;;;;;17.07;74.83;100279.72;31330676;28;20072;-78
2022/05/29 18:11:36;;;;;;;6.00;3.07;;;;;;;17.01;75.12;100296.03;31334033;28;20063;-80
2022/05/29 18:26:38;;;;;;;6.85;3.50;;;;;;;16.91;74.88;100308.22;31364364;28;20127;-77
2022/05/29 18:41:40;;;;;;;4.07;2.85;;;;;;;16.83;74.98;100312.47;31332945;28;20078;-78
2022/05/29 18:56:44;;;;;;;5.53;2.65;;;;;;;16.63;76.04;100310.13;31346226;28;20509;-76
2022/05/29 19:11:45;;;;;;;7.28;3.72;;;;;;;16.38;76.44;100306.44;31369180;28;20041;-77
2022/05/29 19:26:47;;;;;;;4.90;2.25;;;;;;;16.22;76.88;100325.13;31352119;28;20055;-77
2022/05/29 19:41:50;;;;;;;6.90;3.20;;;;;;;16.07;77.07;100324.13;31340702;28;20052;-77
2022/05/29 19:56:52;;;;;;;5.33;3.00;;;;;;;15.92;78.08;100321.94;31329981;28;20049;-77
2022/05/29 20:11:54;;;;;;;4.53;2.57;;;;;;;15.73;78.67;100320.31;31332169;28;20055;-77
2022/05/29 20:26:56;;;;;;;5.47;2.80;;;;;;;15.51;80.04;100305.88;31333768;28;20060;-75
2022/05/29 20:41:58;;;;;;;6.90;2.97;;;;;;;15.25;81.14;100306.00;31312761;28;20072;-78
2022/05/29 20:57:01;;;;;;;4.67;2.20;;;;;;;15.01;82.57;100313.88;31318600;28;20065;-77
2022/05/29 21:12:03;;;;;;;3.20;2.33;;;;;;;14.90;82.76;100312.72;31274437;28;20053;-75
2022/05/29 21:27:05;;;;;;;11.07;5.37;;;;;;;14.67;83.65;100328.28;31307994;28;20056;-77
2022/05/29 21:42:07;;;;;;;8.87;4.13;;;;;;;14.58;84.21;100341.88;31322377;28;20471;-77
2022/05/29 21:57:11;;;;;;;7.87;3.80;;;;;;;14.47;84.90;100346.91;31337038;28;20060;-77
2022/05/29 22:12:13;;;;;;;10.73;4.73;;;;;;;14.32;85.06;100356.72;31343859;28;20124;-75
2022/05/29 22:27:15;;;;;;;8.67;4.13;;;;;;;14.22;86.15;100374.94;31317779;28;20052;-76
2022/05/29 22:42:18;;;;;;;6.10;3.43;;;;;;;14.13;87.67;100390.47;31339290;28;20059;-76
2022/05/29 22:57:20;;;;;;;6.30;3.57;;;;;;;13.99;87.35;100373.28;31263345;28;20065;-75
2022/05/29 23:12:25;;;;;;;12.50;4.73;;;;;;;13.97;87.53;100364.00;31203456;28;20045;-76
2022/05/29 23:27:26;;;;;;;13.27;5.20;;;;;;;13.92;87.48;100354.41;31212702;28;20053;-76
2022/05/29 23:42:28;;;;;;;11.17;5.57;;;;;;;13.82;88.47;100369.13;31232718;28;20045;-77
2022/05/29 23:57:30;;;;;;;18.77;7.17;;;;;;;13.69;89.19;100365.63;31312229;28;20057;-77
